ES-0055 weather

Aeródromo de Antequera
Antequera, Andalucía, Spain

Public forecast

Using degrees Celsius for public forecast. Weather courtesy of forecast.io.

METAR (pilot weather report)

Closest report is Málaga Airport, 25.8 nm (47.8 km) S. Retrieved 2018/10/20 07:30 UTC (30 minutes ago):

LEMG 200730Z 29008KT 9999 FEW025 BKN045 15/13 Q1014 TEMPO 4000 SHRA SCT030CB

TAF (pilot weather forecast)

Closest forecast is Málaga Airport, 25.8 nm (47.8 km) S. Retrieved 2018/10/20 06:27 UTC (2 hours ago):

TAF TAF LEMG 200500Z 2006/2106 28006KT 9999 SCT020 SCT030 TX21/2014Z TN15/2006Z TEMPO 2006/2106 4000 SHRA SCT020 SCT030CB PROB40 TEMPO 2006/2024 2000 TSRA BKN020CB BECMG 2014/2017 14008KT BECMG 2102/2105 29006KT